createdAt,value
2018-08-31T00:00:09.199Z,16.33
2018-08-31T00:01:09.151Z,16.3
2018-08-31T00:02:08.892Z,16.3
2018-08-31T00:03:09.141Z,16.31
2018-08-31T00:04:09.143Z,16.28
2018-08-31T00:05:09.127Z,16.33
2018-08-31T00:06:09.123Z,16.35
2018-08-31T00:07:09.125Z,16.33
2018-08-31T00:08:09.113Z,16.24
2018-08-31T00:09:08.855Z,16.28
2018-08-31T00:10:09.104Z,16.21
2018-08-31T00:11:08.847Z,16.27
2018-08-31T00:12:08.842Z,16.21
2018-08-31T00:13:09.087Z,16.28
2018-08-31T00:14:08.834Z,16.27
2018-08-31T00:15:08.828Z,16.23
2018-08-31T00:16:09.069Z,16.15
2018-08-31T00:17:08.812Z,16.17
2018-08-31T00:18:08.807Z,16.14
2018-08-31T00:19:09.055Z,16.08
2018-08-31T00:20:08.796Z,16.09
2018-08-31T00:21:09.042Z,15.94
2018-08-31T00:22:09.040Z,16.01
2018-08-31T00:23:09.036Z,15.96
2018-08-31T00:24:09.028Z,16.02
2018-08-31T00:25:08.802Z,15.96
2018-08-31T00:26:09.017Z,15.86
2018-08-31T00:27:09.011Z,15.71
2018-08-31T00:28:09.008Z,15.78
2018-08-31T00:29:09.001Z,15.67
2018-08-31T00:30:08.995Z,15.65
2018-08-31T00:31:08.737Z,15.68
2018-08-31T00:32:08.478Z,15.51
2018-08-31T00:33:08.729Z,15.5
2018-08-31T00:34:08.979Z,15.51
2018-08-31T00:35:08.962Z,15.38
2018-08-31T00:36:08.712Z,15.49
2018-08-31T00:37:08.958Z,15.38
2018-08-31T00:38:08.702Z,15.36
2018-08-31T00:39:08.944Z,15.25
2018-08-31T00:40:08.685Z,15.25
2018-08-31T00:41:08.926Z,15.21
2018-08-31T00:42:08.672Z,15.13
2018-08-31T00:43:08.916Z,15.09
2018-08-31T00:44:08.661Z,15.07
2018-08-31T00:45:08.654Z,15.03
2018-08-31T00:46:08.898Z,14.98
2018-08-31T00:47:08.894Z,14.89
2018-08-31T00:48:08.891Z,14.99
2018-08-31T00:49:08.894Z,14.91
2018-08-31T00:50:08.883Z,14.86
2018-08-31T00:51:08.622Z,14.84
2018-08-31T00:52:08.868Z,14.81
2018-08-31T00:53:08.858Z,14.8
2018-08-31T00:54:08.851Z,14.78
2018-08-31T00:55:08.849Z,14.6
2018-08-31T00:56:08.837Z,14.69
2018-08-31T00:57:08.835Z,14.62
2018-08-31T00:58:08.888Z,14.6
2018-08-31T00:59:08.821Z,14.61
2018-08-31T01:00:08.816Z,14.47
2018-08-31T01:01:08.810Z,14.52
2018-08-31T01:02:08.801Z,14.5
2018-08-31T01:03:08.796Z,14.6
2018-08-31T01:04:08.790Z,14.45
2018-08-31T01:05:08.786Z,14.4
2018-08-31T01:06:08.527Z,14.42
2018-08-31T01:07:08.775Z,14.36
2018-08-31T01:08:08.768Z,14.36
2018-08-31T01:09:08.767Z,14.32
2018-08-31T01:10:08.500Z,14.25
2018-08-31T01:11:08.746Z,14.25
2018-08-31T01:12:08.739Z,14.29
2018-08-31T01:13:08.490Z,14.24
2018-08-31T01:14:08.475Z,14.21
2018-08-31T01:15:08.723Z,14.24
2018-08-31T01:16:08.509Z,14.17
2018-08-31T01:17:08.710Z,14.18
2018-08-31T01:18:08.701Z,14.18
2018-08-31T01:19:08.501Z,14.09
2018-08-31T01:20:08.695Z,14.09
2018-08-31T01:21:08.690Z,14.17
2018-08-31T01:22:08.426Z,14.09
2018-08-31T01:23:08.678Z,14.07
2018-08-31T01:24:08.409Z,14.12
2018-08-31T01:25:08.406Z,14.07
2018-08-31T01:26:08.905Z,14.04
2018-08-31T01:27:08.641Z,14.03
2018-08-31T01:28:08.384Z,14.07
2018-08-31T01:29:08.377Z,14.03
2018-08-31T01:30:08.621Z,13.85
2018-08-31T01:31:08.617Z,13.85
2018-08-31T01:32:08.613Z,13.92
2018-08-31T01:33:08.349Z,13.89
2018-08-31T01:34:08.093Z,13.85
2018-08-31T01:35:08.337Z,13.91
2018-08-31T01:36:08.590Z,13.85
2018-08-31T01:37:08.573Z,13.79
2018-08-31T01:38:08.567Z,13.87
2018-08-31T01:39:08.310Z,13.78
2018-08-31T01:40:08.303Z,13.81
2018-08-31T01:41:08.550Z,13.75
2018-08-31T01:42:08.288Z,13.77
2018-08-31T01:43:08.538Z,13.73
2018-08-31T01:44:08.543Z,13.7
2018-08-31T01:45:08.521Z,13.67
2018-08-31T01:46:08.010Z,13.69
2018-08-31T01:47:08.523Z,13.66
2018-08-31T01:48:08.509Z,13.64
2018-08-31T01:49:08.493Z,13.59
2018-08-31T01:50:08.487Z,13.6
2018-08-31T01:51:08.227Z,13.54
2018-08-31T01:52:08.225Z,13.54
2018-08-31T01:53:08.467Z,13.49
2018-08-31T01:54:08.465Z,13.54
2018-08-31T01:55:08.455Z,13.42
2018-08-31T01:56:08.445Z,13.36
2018-08-31T01:57:08.692Z,13.46
2018-08-31T01:58:08.435Z,13.39
2018-08-31T01:59:08.425Z,13.45
2018-08-31T02:00:08.172Z,13.39
2018-08-31T02:01:08.173Z,13.41
2018-08-31T02:02:08.154Z,13.38
2018-08-31T02:03:08.144Z,13.39
2018-08-31T02:04:08.581Z,13.3
2018-08-31T02:05:08.132Z,13.3
2018-08-31T02:06:08.122Z,13.29
2018-08-31T02:07:08.374Z,13.33
2018-08-31T02:08:08.360Z,13.2
2018-08-31T02:09:08.354Z,13.23
2018-08-31T02:10:08.346Z,13.3
2018-08-31T02:11:08.089Z,13.28
2018-08-31T02:12:08.336Z,13.26
2018-08-31T02:13:08.074Z,13.2
2018-08-31T02:14:08.324Z,13.29
2018-08-31T02:15:07.809Z,13.25
2018-08-31T02:16:08.054Z,13.25
2018-08-31T02:17:08.304Z,13.22
2018-08-31T02:18:08.293Z,13.23
2018-08-31T02:19:08.281Z,13.2
2018-08-31T02:20:08.024Z,13.2
2018-08-31T02:21:08.272Z,13.17
2018-08-31T02:22:08.261Z,13.19
2018-08-31T02:23:08.253Z,13.2
2018-08-31T02:24:08.253Z,13.22
2018-08-31T02:25:08.240Z,13.2
2018-08-31T02:26:08.244Z,13.12
2018-08-31T02:27:08.233Z,13.17
2018-08-31T02:28:08.476Z,13.17
2018-08-31T02:29:08.214Z,13.17
2018-08-31T02:30:07.965Z,13.11
2018-08-31T02:31:07.949Z,13.12
2018-08-31T02:32:08.242Z,13.07
2018-08-31T02:33:08.184Z,13.11
2018-08-31T02:34:08.185Z,13.11
2018-08-31T02:35:08.190Z,13.03
2018-08-31T02:36:08.169Z,13.12
2018-08-31T02:37:08.155Z,13.05
2018-08-31T02:38:08.218Z,13.01
2018-08-31T02:39:07.989Z,13.01
2018-08-31T02:40:08.141Z,13.01
2018-08-31T02:41:08.133Z,12.97
2018-08-31T02:42:08.134Z,13.01
2018-08-31T02:43:07.862Z,13.03
2018-08-31T02:44:07.853Z,13.01
2018-08-31T02:45:08.096Z,12.93
2018-08-31T02:46:08.095Z,12.95
2018-08-31T02:47:08.100Z,12.96
2018-08-31T02:48:08.101Z,12.96
2018-08-31T02:49:08.073Z,12.97
2018-08-31T02:50:08.073Z,12.93
2018-08-31T02:51:07.806Z,12.96
2018-08-31T02:52:07.796Z,12.85
2018-08-31T02:53:08.041Z,12.82
2018-08-31T02:54:07.778Z,12.82
2018-08-31T02:55:07.772Z,12.79
2018-08-31T02:56:07.513Z,12.9
2018-08-31T02:57:07.758Z,12.83
2018-08-31T02:58:08.006Z,12.9
2018-08-31T02:59:07.994Z,12.83
2018-08-31T03:00:07.985Z,12.83
2018-08-31T03:01:07.984Z,12.72
2018-08-31T03:02:07.721Z,12.77
2018-08-31T03:03:07.465Z,12.75
2018-08-31T03:04:07.710Z,12.75
2018-08-31T03:05:07.711Z,12.77
2018-08-31T03:06:07.692Z,12.72
2018-08-31T03:07:07.432Z,12.75
2018-08-31T03:08:07.928Z,12.74
2018-08-31T03:09:07.922Z,12.71
2018-08-31T03:10:07.666Z,12.7
2018-08-31T03:11:07.654Z,12.72
2018-08-31T03:12:07.647Z,12.67
2018-08-31T03:13:07.644Z,12.65
2018-08-31T03:14:07.887Z,12.71
2018-08-31T03:15:07.875Z,12.7
2018-08-31T03:16:07.873Z,12.62
2018-08-31T03:17:07.880Z,12.56
2018-08-31T03:18:07.858Z,12.68
2018-08-31T03:19:07.853Z,12.6
2018-08-31T03:20:07.590Z,12.59
2018-08-31T03:21:07.651Z,12.65
2018-08-31T03:22:07.570Z,12.56
2018-08-31T03:23:07.817Z,12.5
2018-08-31T03:24:07.811Z,12.56
2018-08-31T03:25:07.800Z,12.53
2018-08-31T03:26:07.792Z,12.57
2018-08-31T03:27:07.792Z,12.59
2018-08-31T03:28:07.779Z,12.53
2018-08-31T03:29:07.775Z,12.49
2018-08-31T03:30:07.514Z,12.46
2018-08-31T03:31:07.755Z,12.42
2018-08-31T03:32:07.772Z,12.49
2018-08-31T03:33:07.740Z,12.47
2018-08-31T03:34:07.741Z,12.47
2018-08-31T03:35:07.728Z,12.47
2018-08-31T03:36:07.716Z,12.42
2018-08-31T03:37:08.134Z,12.5
2018-08-31T03:38:07.459Z,12.46
2018-08-31T03:39:07.195Z,12.41
2018-08-31T03:40:07.698Z,12.38
2018-08-31T03:41:07.679Z,12.41
2018-08-31T03:42:07.422Z,12.37
2018-08-31T03:43:07.410Z,12.37
2018-08-31T03:44:07.658Z,12.37
2018-08-31T03:45:07.401Z,12.46
2018-08-31T03:46:07.643Z,12.27
2018-08-31T03:47:07.635Z,12.37
2018-08-31T03:48:07.371Z,12.32
2018-08-31T03:49:07.364Z,12.24
2018-08-31T03:50:07.619Z,12.32
2018-08-31T03:51:07.600Z,12.29
2018-08-31T03:52:07.596Z,12.29
2018-08-31T03:53:07.590Z,12.29
2018-08-31T03:54:07.327Z,12.32
2018-08-31T03:55:07.319Z,12.24
2018-08-31T03:56:07.575Z,12.28
2018-08-31T03:57:07.561Z,12.27
2018-08-31T03:58:07.552Z,12.24
2018-08-31T03:59:07.547Z,12.32
2018-08-31T04:00:07.279Z,12.24
2018-08-31T04:01:07.538Z,12.27
2018-08-31T04:02:07.771Z,12.21
2018-08-31T04:03:07.268Z,12.21
2018-08-31T04:04:07.500Z,12.27
2018-08-31T04:05:07.240Z,12.27
2018-08-31T04:06:07.250Z,12.24
2018-08-31T04:07:07.476Z,12.23
2018-08-31T04:08:07.469Z,12.21
2018-08-31T04:09:07.212Z,12.21
2018-08-31T04:10:07.458Z,12.28
2018-08-31T04:11:07.196Z,12.19
2018-08-31T04:12:07.438Z,12.2
2018-08-31T04:13:07.177Z,12.23
2018-08-31T04:14:07.178Z,12.13
2018-08-31T04:15:07.413Z,12.28
2018-08-31T04:16:07.415Z,12.14
2018-08-31T04:17:06.905Z,12.28
2018-08-31T04:18:07.392Z,12.24
2018-08-31T04:19:07.133Z,12.29
2018-08-31T04:20:07.131Z,12.31
2018-08-31T04:21:07.380Z,12.27
2018-08-31T04:22:07.382Z,12.31
2018-08-31T04:23:07.358Z,12.38
2018-08-31T04:24:07.092Z,12.32
2018-08-31T04:25:07.088Z,12.24
2018-08-31T04:26:07.331Z,12.31
2018-08-31T04:27:07.321Z,12.32
2018-08-31T04:28:07.311Z,12.32
2018-08-31T04:29:07.309Z,12.39
2018-08-31T04:30:07.312Z,12.45
2018-08-31T04:31:07.041Z,12.38
2018-08-31T04:32:07.284Z,12.41
2018-08-31T04:33:07.524Z,12.42
2018-08-31T04:34:07.464Z,12.42
2018-08-31T04:35:06.755Z,12.47
2018-08-31T04:36:07.253Z,12.5
2018-08-31T04:37:06.993Z,12.47
2018-08-31T04:38:07.236Z,12.47
2018-08-31T04:39:06.978Z,12.46
2018-08-31T04:40:07.226Z,12.6
2018-08-31T04:41:06.711Z,12.57
2018-08-31T04:42:07.203Z,12.54
2018-08-31T04:43:07.412Z,12.67
2018-08-31T04:44:06.690Z,12.67
2018-08-31T04:45:06.931Z,12.74
2018-08-31T04:46:06.923Z,12.75
2018-08-31T04:47:07.169Z,12.75
2018-08-31T04:48:06.916Z,12.83
2018-08-31T04:49:06.900Z,12.83
2018-08-31T04:50:06.892Z,12.96
2018-08-31T04:51:07.137Z,12.96
2018-08-31T04:52:06.880Z,13.04
2018-08-31T04:53:07.130Z,13.17
2018-08-31T04:54:07.119Z,13.19
2018-08-31T04:55:06.856Z,13.22
2018-08-31T04:56:07.110Z,13.3
2018-08-31T04:57:06.842Z,13.42
2018-08-31T04:58:06.836Z,13.59
2018-08-31T04:59:06.829Z,13.6
2018-08-31T05:00:07.072Z,13.71
2018-08-31T05:01:06.823Z,13.82
2018-08-31T05:02:06.811Z,13.89
2018-08-31T05:03:07.054Z,14.03
2018-08-31T05:04:07.042Z,14.12
2018-08-31T05:05:07.043Z,14.25
2018-08-31T05:06:06.787Z,14.32
2018-08-31T05:07:06.773Z,14.37
2018-08-31T05:08:06.776Z,14.57
2018-08-31T05:09:07.018Z,14.64
2018-08-31T05:10:07.041Z,14.8
2018-08-31T05:11:06.746Z,14.92
2018-08-31T05:12:06.743Z,15.03
2018-08-31T05:13:06.741Z,15.21
2018-08-31T05:14:06.740Z,15.34
2018-08-31T05:15:06.474Z,15.43
2018-08-31T05:16:07.312Z,15.59
2018-08-31T05:17:06.715Z,15.67
2018-08-31T05:18:06.715Z,15.74
2018-08-31T05:19:06.727Z,15.86
2018-08-31T05:20:06.955Z,16.01
2018-08-31T05:21:06.988Z,16.01
2018-08-31T05:22:06.697Z,16.12
2018-08-31T05:23:07.268Z,16.23
2018-08-31T05:24:06.930Z,16.38
2018-08-31T05:25:06.966Z,16.34
2018-08-31T05:26:06.915Z,16.46
2018-08-31T05:27:06.923Z,16.52
2018-08-31T05:28:06.912Z,16.6
2018-08-31T05:29:06.653Z,16.49
2018-08-31T05:30:06.647Z,16.63
2018-08-31T05:31:06.641Z,16.71
2018-08-31T05:32:06.649Z,16.75
2018-08-31T05:33:06.635Z,16.76
2018-08-31T05:34:06.845Z,16.81
2018-08-31T05:35:06.624Z,16.88
2018-08-31T05:36:06.619Z,17.01
2018-08-31T05:37:06.616Z,17.11
2018-08-31T05:38:06.610Z,17.23
2018-08-31T05:39:06.860Z,17.33
2018-08-31T05:40:06.861Z,17.52
2018-08-31T05:41:06.599Z,17.56
2018-08-31T05:42:06.342Z,17.66
2018-08-31T05:43:06.344Z,17.82
2018-08-31T05:44:06.334Z,17.89
2018-08-31T05:45:06.332Z,18.14
2018-08-31T05:46:06.583Z,18.26
2018-08-31T05:47:06.579Z,18.47
2018-08-31T05:48:06.571Z,18.55
2018-08-31T05:49:06.832Z,18.84
2018-08-31T05:50:06.570Z,18.94
2018-08-31T05:51:06.563Z,19.11
2018-08-31T05:52:06.820Z,19.33
2018-08-31T05:53:06.809Z,19.47
2018-08-31T05:54:06.810Z,19.59
2018-08-31T05:55:06.551Z,19.71
2018-08-31T05:56:06.804Z,19.88
2018-08-31T05:57:06.295Z,20.1
2018-08-31T05:58:06.544Z,20.1
2018-08-31T05:59:06.543Z,20.26
2018-08-31T06:00:06.552Z,20.41
2018-08-31T06:01:06.545Z,20.59
2018-08-31T06:02:06.972Z,20.77
2018-08-31T06:03:06.831Z,20.79
2018-08-31T06:04:06.786Z,21.04
2018-08-31T06:05:06.786Z,21.07
2018-08-31T06:06:06.531Z,21.1
2018-08-31T06:07:06.530Z,21.17
2018-08-31T06:08:06.275Z,21.1
2018-08-31T06:09:06.782Z,21.09
2018-08-31T06:10:06.525Z,20.99
2018-08-31T06:11:06.778Z,20.97
2018-08-31T06:12:07.066Z,20.94
2018-08-31T06:13:06.520Z,20.94
2018-08-31T06:14:06.523Z,20.91
2018-08-31T06:15:06.527Z,20.87
2018-08-31T06:16:06.770Z,20.79
2018-08-31T06:17:06.773Z,20.69
2018-08-31T06:18:06.514Z,20.59
2018-08-31T06:19:06.765Z,20.64
2018-08-31T06:20:06.761Z,20.58
2018-08-31T06:21:07.051Z,20.51
2018-08-31T06:22:06.510Z,20.62
2018-08-31T06:23:06.255Z,20.66
2018-08-31T06:24:06.516Z,20.69
2018-08-31T06:25:06.756Z,20.77
2018-08-31T06:26:06.249Z,20.97
2018-08-31T06:27:06.616Z,21.12
2018-08-31T06:28:06.502Z,21.21
2018-08-31T06:29:06.753Z,21.25
2018-08-31T06:30:06.501Z,21.35
2018-08-31T06:31:06.245Z,21.34
2018-08-31T06:32:06.747Z,21.29
2018-08-31T06:33:06.496Z,21.25
2018-08-31T06:34:06.974Z,21.28
2018-08-31T06:35:06.490Z,21.16
2018-08-31T06:36:06.504Z,21.16
2018-08-31T06:37:06.489Z,21.13
2018-08-31T06:38:06.488Z,21.09
2018-08-31T06:39:06.744Z,21.16
2018-08-31T06:40:06.741Z,21.16
2018-08-31T06:41:06.496Z,21.29
2018-08-31T06:42:06.487Z,21.47
2018-08-31T06:43:06.486Z,21.54
2018-08-31T06:44:06.484Z,21.68
2018-08-31T06:45:06.499Z,21.64
2018-08-31T06:46:06.749Z,21.69
2018-08-31T06:47:06.486Z,21.74
2018-08-31T06:48:06.485Z,21.91
2018-08-31T06:49:06.483Z,21.9
2018-08-31T06:50:06.737Z,21.94
2018-08-31T06:51:06.482Z,21.79
2018-08-31T06:52:06.736Z,21.92
2018-08-31T06:53:06.230Z,21.9
2018-08-31T06:54:06.486Z,21.9
2018-08-31T06:55:06.745Z,21.91
2018-08-31T06:56:06.241Z,21.94
2018-08-31T06:57:06.489Z,22.02
2018-08-31T06:58:06.483Z,22.24
2018-08-31T06:59:06.236Z,22.39
2018-08-31T07:00:06.485Z,22.45
2018-08-31T07:01:06.484Z,22.58
2018-08-31T07:02:06.486Z,22.75
2018-08-31T07:03:06.738Z,22.98
2018-08-31T07:04:06.489Z,23.17
2018-08-31T07:05:06.235Z,23.43
2018-08-31T07:06:06.486Z,23.57
2018-08-31T07:07:06.740Z,23.7
2018-08-31T07:08:06.490Z,23.66
2018-08-31T07:09:07.002Z,23.72
2018-08-31T07:10:06.492Z,23.76
2018-08-31T07:11:06.495Z,23.84
2018-08-31T07:12:06.801Z,23.88
2018-08-31T07:13:08.026Z,23.97
2018-08-31T07:14:06.503Z,23.97
2018-08-31T07:15:06.757Z,23.93
2018-08-31T07:16:06.758Z,23.85
2018-08-31T07:17:06.252Z,23.78
2018-08-31T07:18:06.760Z,23.78
2018-08-31T07:19:06.505Z,23.69
2018-08-31T07:20:06.765Z,23.69
2018-08-31T07:21:06.518Z,23.58
2018-08-31T07:22:06.512Z,23.6
2018-08-31T07:23:06.807Z,23.58
2018-08-31T07:24:06.765Z,23.6
2018-08-31T07:25:06.516Z,23.55
2018-08-31T07:26:06.769Z,23.54
2018-08-31T07:27:06.516Z,23.48
2018-08-31T07:28:06.771Z,23.55
2018-08-31T07:29:06.520Z,23.55
2018-08-31T07:30:06.270Z,23.61
2018-08-31T07:31:06.566Z,23.58
2018-08-31T07:32:06.584Z,23.55
2018-08-31T07:33:06.526Z,23.53
2018-08-31T07:34:06.525Z,23.54
2018-08-31T07:35:06.779Z,23.47
2018-08-31T07:36:06.530Z,23.48
2018-08-31T07:37:06.785Z,23.42
2018-08-31T07:38:06.779Z,23.35
2018-08-31T07:39:06.528Z,23.2
2018-08-31T07:40:07.034Z,23.16
2018-08-31T07:41:06.782Z,23.05
2018-08-31T07:42:06.788Z,22.98
2018-08-31T07:43:06.540Z,22.86
2018-08-31T07:44:06.529Z,22.76
2018-08-31T07:45:06.798Z,22.64
2018-08-31T07:46:06.531Z,22.51
2018-08-31T07:47:06.533Z,22.49
2018-08-31T07:48:06.279Z,22.47
2018-08-31T07:49:06.792Z,22.4
2018-08-31T07:50:06.528Z,22.31
2018-08-31T07:51:06.527Z,22.21
2018-08-31T07:52:06.783Z,22.2
2018-08-31T07:53:06.532Z,22.2
2018-08-31T07:54:06.528Z,22.07
2018-08-31T07:55:06.780Z,21.98
2018-08-31T07:56:06.774Z,21.99
2018-08-31T07:57:06.523Z,22.02
2018-08-31T07:58:06.521Z,22.07
2018-08-31T07:59:06.549Z,21.91
2018-08-31T08:00:06.521Z,21.86
2018-08-31T08:01:06.517Z,21.92
2018-08-31T08:02:06.516Z,21.86
2018-08-31T08:03:06.263Z,21.8
2018-08-31T08:04:06.514Z,21.88
2018-08-31T08:05:06.767Z,21.88
2018-08-31T08:06:06.510Z,21.86
2018-08-31T08:07:06.512Z,21.83
2018-08-31T08:08:06.507Z,21.82
2018-08-31T08:09:06.763Z,21.82
2018-08-31T08:10:06.504Z,21.83
2018-08-31T08:11:06.752Z,21.68
2018-08-31T08:12:06.249Z,21.74
2018-08-31T08:13:06.500Z,21.64
2018-08-31T08:14:06.754Z,21.52
2018-08-31T08:15:06.244Z,21.52
2018-08-31T08:16:06.285Z,21.5
2018-08-31T08:17:06.493Z,21.34
2018-08-31T08:18:06.495Z,21.49
2018-08-31T08:19:06.742Z,21.52
2018-08-31T08:20:06.750Z,21.56
2018-08-31T08:21:06.492Z,21.62
2018-08-31T08:22:06.485Z,21.62
2018-08-31T08:23:06.738Z,21.65
2018-08-31T08:24:06.480Z,21.69
2018-08-31T08:25:06.740Z,21.74
2018-08-31T08:26:06.730Z,21.67
2018-08-31T08:27:06.476Z,21.69
2018-08-31T08:28:06.473Z,21.64
2018-08-31T08:29:06.472Z,21.52
2018-08-31T08:30:06.476Z,21.47
2018-08-31T08:31:06.722Z,21.47
2018-08-31T08:32:06.470Z,21.43
2018-08-31T08:33:06.718Z,21.35
2018-08-31T08:34:06.463Z,21.34
2018-08-31T08:35:06.463Z,21.38
2018-08-31T08:36:06.764Z,21.37
2018-08-31T08:37:06.456Z,21.32
2018-08-31T08:38:06.458Z,21.37
2018-08-31T08:39:06.203Z,21.4
2018-08-31T08:40:06.708Z,21.5
2018-08-31T08:41:06.451Z,21.53
2018-08-31T08:42:06.839Z,21.67
2018-08-31T08:43:06.704Z,21.72
2018-08-31T08:44:06.193Z,21.91
2018-08-31T08:45:06.697Z,21.91
2018-08-31T08:46:06.445Z,21.88
2018-08-31T08:47:06.737Z,21.98
2018-08-31T08:48:06.516Z,21.96
2018-08-31T08:49:06.694Z,22.05
2018-08-31T08:50:06.184Z,22
2018-08-31T08:51:06.436Z,22
2018-08-31T08:52:06.431Z,22
2018-08-31T08:53:06.690Z,22.06
2018-08-31T08:54:06.427Z,22.07
2018-08-31T08:55:06.431Z,22.15
2018-08-31T08:56:06.430Z,22.24
2018-08-31T08:57:06.172Z,22.45
2018-08-31T08:58:06.791Z,22.52
2018-08-31T08:59:06.675Z,22.75
2018-08-31T09:00:06.683Z,22.94
2018-08-31T09:01:06.678Z,23.12
2018-08-31T09:02:06.419Z,23.22
2018-08-31T09:03:06.418Z,23.46
2018-08-31T09:04:06.416Z,23.47
2018-08-31T09:05:06.172Z,23.54
2018-08-31T09:06:06.415Z,23.63
2018-08-31T09:07:06.670Z,23.69
2018-08-31T09:08:06.163Z,23.79
2018-08-31T09:09:06.417Z,24
2018-08-31T09:10:06.417Z,24.1
2018-08-31T09:11:06.414Z,24.21
2018-08-31T09:12:06.414Z,24.28
2018-08-31T09:13:06.665Z,24.39
2018-08-31T09:14:06.418Z,24.55
2018-08-31T09:15:06.418Z,24.73
2018-08-31T09:16:06.414Z,24.81
2018-08-31T09:17:06.668Z,24.88
2018-08-31T09:18:06.417Z,25.09
2018-08-31T09:19:06.417Z,25.13
2018-08-31T09:20:06.184Z,25.2
2018-08-31T09:21:06.423Z,25.18
2018-08-31T09:22:06.672Z,25.36
2018-08-31T09:23:06.421Z,25.36
2018-08-31T09:24:06.170Z,25.47
2018-08-31T09:25:06.694Z,25.52
2018-08-31T09:26:06.677Z,25.47
2018-08-31T09:27:06.681Z,25.4
2018-08-31T09:28:06.686Z,25.36
2018-08-31T09:29:06.681Z,25.32
2018-08-31T09:30:06.431Z,25.33
2018-08-31T09:31:06.710Z,25.3
2018-08-31T09:32:06.434Z,25.39
2018-08-31T09:33:06.434Z,25.35
2018-08-31T09:34:06.690Z,25.35
2018-08-31T09:35:06.708Z,25.33
2018-08-31T09:36:06.692Z,25.3
2018-08-31T09:37:06.446Z,25.36
2018-08-31T09:38:06.707Z,25.4
2018-08-31T09:39:06.447Z,25.47
2018-08-31T09:40:06.708Z,25.62
2018-08-31T09:41:06.448Z,25.67
2018-08-31T09:42:06.450Z,25.79
2018-08-31T09:43:06.452Z,25.9
2018-08-31T09:44:06.631Z,25.91
2018-08-31T09:45:06.206Z,25.97
2018-08-31T09:46:06.458Z,25.91
2018-08-31T09:47:06.713Z,26.12
2018-08-31T09:48:06.464Z,26.12
2018-08-31T09:49:06.717Z,26.29
2018-08-31T09:50:06.215Z,26.36
2018-08-31T09:51:06.722Z,26.35
2018-08-31T09:52:06.728Z,26.33
2018-08-31T09:53:06.725Z,26.25
2018-08-31T09:54:06.478Z,26.23
2018-08-31T09:55:06.549Z,26.23
2018-08-31T09:56:06.483Z,26.18
2018-08-31T09:57:06.483Z,26.23
2018-08-31T09:58:06.485Z,26.17
2018-08-31T09:59:06.488Z,26.02
2018-08-31T10:00:06.237Z,26.17
2018-08-31T10:01:06.750Z,26.26
2018-08-31T10:02:06.495Z,26.25
2018-08-31T10:03:06.750Z,26.32
2018-08-31T10:04:06.752Z,26.35
2018-08-31T10:05:06.758Z,26.4
2018-08-31T10:06:06.508Z,26.43
2018-08-31T10:07:06.508Z,26.4
2018-08-31T10:08:06.510Z,26.62
2018-08-31T10:09:06.518Z,26.67
2018-08-31T10:10:06.519Z,26.73
2018-08-31T10:11:06.517Z,26.69
2018-08-31T10:12:06.521Z,26.69
2018-08-31T10:13:06.775Z,26.73
2018-08-31T10:14:06.540Z,26.69
2018-08-31T10:15:06.533Z,26.73
2018-08-31T10:16:06.534Z,26.66
2018-08-31T10:17:06.534Z,26.63
2018-08-31T10:18:06.536Z,26.55
2018-08-31T10:19:06.795Z,26.58
2018-08-31T10:20:06.547Z,26.54
2018-08-31T10:21:06.801Z,26.48
2018-08-31T10:22:06.548Z,26.39
2018-08-31T10:23:06.806Z,26.36
2018-08-31T10:24:06.812Z,26.4
2018-08-31T10:25:06.809Z,26.5
2018-08-31T10:26:06.556Z,26.54
2018-08-31T10:27:06.814Z,26.6
2018-08-31T10:28:06.563Z,26.63
2018-08-31T10:29:06.567Z,26.73
2018-08-31T10:30:07.074Z,26.82
2018-08-31T10:31:06.825Z,26.84
2018-08-31T10:32:06.578Z,26.95
2018-08-31T10:33:06.830Z,27
2018-08-31T10:34:06.593Z,26.85
2018-08-31T10:35:06.583Z,26.84
2018-08-31T10:36:06.851Z,26.84
2018-08-31T10:37:06.589Z,26.77
2018-08-31T10:38:06.593Z,26.87
2018-08-31T10:39:06.847Z,26.88
2018-08-31T10:40:06.596Z,26.85
2018-08-31T10:41:06.607Z,26.82
2018-08-31T10:42:06.607Z,26.66
2018-08-31T10:43:06.861Z,26.54
2018-08-31T10:44:06.356Z,26.33
2018-08-31T10:45:06.610Z,26.28
2018-08-31T10:46:06.880Z,26.29
2018-08-31T10:47:06.878Z,26.26
2018-08-31T10:48:06.870Z,26.29
2018-08-31T10:49:06.624Z,26.12
2018-08-31T10:50:06.878Z,26.02
2018-08-31T10:51:06.628Z,25.99
2018-08-31T10:52:06.633Z,25.8
2018-08-31T10:53:06.631Z,25.77
2018-08-31T10:54:06.634Z,25.62
2018-08-31T10:55:06.392Z,25.69
2018-08-31T10:56:06.640Z,25.65
2018-08-31T10:57:06.894Z,25.8
2018-08-31T10:58:06.640Z,25.76
2018-08-31T10:59:06.649Z,25.87
2018-08-31T11:00:06.931Z,25.82
2018-08-31T11:01:06.910Z,25.92
2018-08-31T11:02:06.649Z,25.88
2018-08-31T11:03:06.653Z,25.94
2018-08-31T11:04:06.908Z,25.94
2018-08-31T11:05:06.654Z,26.01
2018-08-31T11:06:06.915Z,26.01
2018-08-31T11:07:06.658Z,25.97
2018-08-31T11:08:06.662Z,25.95
2018-08-31T11:09:06.664Z,25.91
2018-08-31T11:10:06.663Z,25.99
2018-08-31T11:11:06.670Z,25.99
2018-08-31T11:12:06.683Z,26.09
2018-08-31T11:13:07.239Z,26.05
2018-08-31T11:14:06.676Z,26.2
2018-08-31T11:15:06.698Z,26.28
2018-08-31T11:16:06.680Z,26.33
2018-08-31T11:17:06.686Z,26.37
2018-08-31T11:18:06.681Z,26.45
2018-08-31T11:19:06.434Z,26.43
2018-08-31T11:20:06.431Z,26.4
2018-08-31T11:21:06.936Z,26.45
2018-08-31T11:22:06.939Z,26.55
2018-08-31T11:23:06.693Z,26.35
2018-08-31T11:24:06.690Z,26.32
2018-08-31T11:25:06.440Z,26.23
2018-08-31T11:26:06.447Z,26.05
2018-08-31T11:27:06.948Z,25.98
2018-08-31T11:28:06.953Z,25.85
2018-08-31T11:29:06.699Z,25.83
2018-08-31T11:30:06.953Z,25.73
2018-08-31T11:31:06.955Z,25.72
2018-08-31T11:32:06.958Z,25.61
2018-08-31T11:33:06.958Z,25.52
2018-08-31T11:34:06.720Z,25.5
2018-08-31T11:35:06.711Z,25.42
2018-08-31T11:36:06.708Z,25.51
2018-08-31T11:37:06.460Z,25.57
2018-08-31T11:38:06.965Z,25.7
2018-08-31T11:39:06.716Z,25.85
2018-08-31T11:40:06.966Z,25.82
2018-08-31T11:41:06.985Z,25.83
2018-08-31T11:42:06.968Z,25.8
2018-08-31T11:43:06.719Z,25.87
2018-08-31T11:44:06.977Z,25.87
2018-08-31T11:45:06.728Z,25.82
2018-08-31T11:46:06.725Z,25.82
2018-08-31T11:47:06.979Z,25.65
2018-08-31T11:48:06.472Z,25.38
2018-08-31T11:49:06.982Z,25.08
2018-08-31T11:50:06.990Z,24.85
2018-08-31T11:51:06.728Z,24.58
2018-08-31T11:52:06.995Z,24.57
2018-08-31T11:53:06.994Z,24.4
2018-08-31T11:54:06.982Z,24.47
2018-08-31T11:55:06.832Z,24.39
2018-08-31T11:56:06.990Z,24.45
2018-08-31T11:57:06.992Z,24.47
2018-08-31T11:58:06.765Z,24.45
2018-08-31T11:59:06.736Z,24.52
2018-08-31T12:00:06.736Z,24.52
2018-08-31T12:01:06.920Z,24.5
2018-08-31T12:02:06.971Z,24.53
2018-08-31T12:03:06.991Z,24.53
2018-08-31T12:04:07.001Z,24.42
2018-08-31T12:05:06.999Z,24.31
2018-08-31T12:06:06.993Z,24.27
2018-08-31T12:07:06.993Z,24.18
2018-08-31T12:08:06.739Z,24.1
2018-08-31T12:09:06.993Z,24.12
2018-08-31T12:10:07.004Z,24.08
2018-08-31T12:11:07.013Z,23.94
2018-08-31T12:12:06.747Z,23.94
2018-08-31T12:13:07.000Z,23.79
2018-08-31T12:14:06.993Z,23.78
2018-08-31T12:15:06.999Z,23.7
2018-08-31T12:16:06.743Z,23.57
2018-08-31T12:17:07.005Z,23.46
2018-08-31T12:18:07.003Z,23.32
2018-08-31T12:19:06.744Z,23.2
2018-08-31T12:20:06.498Z,23.25
2018-08-31T12:21:07.055Z,23.16
2018-08-31T12:22:06.739Z,23.05
2018-08-31T12:23:06.993Z,22.94
2018-08-31T12:24:06.735Z,22.88
2018-08-31T12:25:06.997Z,22.76
2018-08-31T12:26:06.736Z,22.65
2018-08-31T12:27:06.999Z,22.6
2018-08-31T12:28:06.987Z,22.51
2018-08-31T12:29:06.735Z,22.47
2018-08-31T12:30:06.481Z,22.46
2018-08-31T12:31:06.479Z,22.31
2018-08-31T12:32:06.981Z,22.42
2018-08-31T12:33:06.980Z,22.39
2018-08-31T12:34:06.728Z,22.28
2018-08-31T12:35:06.726Z,22.37
2018-08-31T12:36:06.766Z,22.28
2018-08-31T12:37:06.975Z,22.4
2018-08-31T12:38:06.722Z,22.21
2018-08-31T12:39:06.972Z,22.27
2018-08-31T12:40:06.971Z,22.17
2018-08-31T12:41:06.716Z,22.21
2018-08-31T12:42:06.717Z,22.21
2018-08-31T12:43:06.714Z,22.09
2018-08-31T12:44:06.792Z,22.07
2018-08-31T12:45:06.714Z,22.21
2018-08-31T12:46:06.709Z,22.06
2018-08-31T12:47:06.709Z,22.07
2018-08-31T12:48:06.758Z,21.99
2018-08-31T12:49:06.706Z,22.06
2018-08-31T12:50:06.705Z,22.09
2018-08-31T12:51:06.963Z,22.17
2018-08-31T12:52:06.952Z,22.2
2018-08-31T12:53:06.698Z,22.24
2018-08-31T12:54:06.698Z,22.35
2018-08-31T12:55:06.700Z,22.45